Weichang, China
Current Conditions -  °F | °C
As of 12:00 PM on Sunday 25 Jan 2015 (Local Time) from ZBAA Reporting Station
Haze Haze  
Wind Chill: 32°   Ceiling: Unl
Heat Index: 36°   Visibility: 2.5mi
Dew Point: 27°   Wind: 4mph
Humidity: 70%   Direction: 150°SSE
Pressure: 30.27"   Gusts: NA
Location:  41.93°N, 117.75°E
Report Text: ZBAA 250400Z 15002MPS 100V260 4000 HZ NSC 02/M03 Q1025 NOSIG
Loading
Personal Weather Stations






























Interactive Weather Map New forecast layout! Learn more

10-Day Weather Forecast

Advertisements
Track Severe Weather on mobile